createdAt,value
2022-12-20T00:01:54.348Z,10.23
2022-12-20T00:04:24.475Z,11.60
2022-12-20T00:06:52.637Z,11.10
2022-12-20T00:09:21.119Z,12.52
2022-12-20T00:11:49.338Z,13.25
2022-12-20T00:14:19.133Z,12.82
2022-12-20T00:16:47.678Z,11.25
2022-12-20T00:19:17.017Z,12.07
2022-12-20T00:21:48.607Z,13.07
2022-12-20T00:24:22.212Z,11.57
2022-12-20T00:26:54.142Z,13.15
2022-12-20T00:29:22.839Z,12.00
2022-12-20T00:31:51.266Z,12.05
2022-12-20T00:34:20.326Z,11.70
2022-12-20T00:36:50.855Z,12.30
2022-12-20T00:39:19.368Z,12.52
2022-12-20T00:41:47.709Z,12.10
2022-12-20T00:44:15.968Z,12.93
2022-12-20T00:46:44.470Z,10.98
2022-12-20T00:49:13.136Z,12.07
2022-12-20T00:51:41.869Z,11.45
2022-12-20T00:54:12.001Z,13.07
2022-12-20T00:56:40.740Z,13.77
2022-12-20T00:59:08.975Z,11.82
2022-12-20T01:01:38.050Z,14.10
2022-12-20T01:04:06.635Z,13.48
2022-12-20T01:06:35.146Z,12.38
2022-12-20T01:09:04.507Z,12.43
2022-12-20T01:11:36.196Z,11.88
2022-12-20T01:14:07.401Z,12.77
2022-12-20T01:16:38.549Z,10.63
2022-12-20T01:19:07.579Z,11.32
2022-12-20T01:21:36.061Z,11.93
2022-12-20T01:24:04.482Z,11.50
2022-12-20T01:26:34.054Z,10.88
2022-12-20T01:29:03.059Z,11.25
2022-12-20T01:31:31.588Z,11.25
2022-12-20T01:34:02.678Z,11.95
2022-12-20T01:36:33.948Z,13.45
2022-12-20T01:39:04.956Z,12.00
2022-12-20T01:41:35.540Z,11.55
2022-12-20T01:44:06.367Z,13.02
2022-12-20T01:46:36.539Z,12.80
2022-12-20T01:49:11.018Z,11.85
2022-12-20T01:51:44.799Z,11.57
2022-12-20T01:54:18.454Z,11.23
2022-12-20T01:56:50.980Z,11.20
2022-12-20T01:59:20.787Z,11.93
2022-12-20T02:01:50.522Z,12.45
2022-12-20T02:04:19.245Z,11.52
2022-12-20T02:06:49.951Z,11.90
2022-12-20T02:09:18.733Z,12.07
2022-12-20T02:12:10.584Z,10.75
2022-12-20T02:14:51.671Z,11.38
2022-12-20T02:17:33.325Z,13.68
2022-12-20T02:20:40.721Z,12.40
2022-12-20T02:23:28.241Z,12.90
2022-12-20T02:26:12.671Z,11.18
2022-12-20T02:29:04.212Z,12.88
2022-12-20T02:31:41.169Z,11.85
2022-12-20T02:34:12.485Z,10.88
2022-12-20T02:36:41.801Z,12.73
2022-12-20T02:39:17.204Z,13.35
2022-12-20T02:41:53.042Z,13.75
2022-12-20T02:44:43.277Z,9.90
2022-12-20T02:47:23.039Z,12.95
2022-12-20T02:49:55.691Z,12.40
2022-12-20T02:52:27.537Z,13.05
2022-12-20T02:54:56.997Z,12.57
2022-12-20T02:57:31.927Z,11.70
2022-12-20T03:00:07.146Z,13.02
2022-12-20T03:02:51.744Z,11.50
2022-12-20T03:05:23.911Z,13.65
2022-12-20T03:07:53.610Z,12.48
2022-12-20T03:10:23.801Z,11.20
2022-12-20T03:12:52.336Z,12.48
2022-12-20T03:15:20.920Z,12.45
2022-12-20T03:17:50.818Z,12.65
2022-12-20T03:20:26.129Z,13.43
2022-12-20T03:22:57.290Z,12.07
2022-12-20T03:25:25.667Z,12.05
2022-12-20T03:27:54.283Z,14.13
2022-12-20T03:30:22.542Z,13.00
2022-12-20T03:32:52.199Z,12.45
2022-12-20T03:35:20.439Z,12.38
2022-12-20T03:37:48.964Z,14.05
2022-12-20T03:40:17.299Z,10.68
2022-12-20T03:42:45.836Z,12.20
2022-12-20T03:45:14.640Z,14.07
2022-12-20T03:47:43.367Z,11.65
2022-12-20T03:50:13.930Z,11.82
2022-12-20T03:52:42.639Z,11.48
2022-12-20T03:55:12.672Z,12.10
2022-12-20T03:57:42.333Z,11.90
2022-12-20T04:00:14.002Z,12.35
2022-12-20T04:02:42.567Z,11.55
2022-12-20T04:05:12.935Z,12.30
2022-12-20T04:07:41.292Z,11.90
2022-12-20T04:10:10.809Z,11.32
2022-12-20T04:12:39.477Z,12.00
2022-12-20T04:15:09.418Z,11.82
2022-12-20T04:17:39.271Z,11.32
2022-12-20T04:20:20.281Z,12.18
2022-12-20T04:22:51.759Z,11.82
2022-12-20T04:25:22.345Z,11.80
2022-12-20T04:27:51.077Z,13.20
2022-12-20T04:30:19.772Z,11.55
2022-12-20T04:32:48.465Z,12.13
2022-12-20T04:35:16.967Z,11.63
2022-12-20T04:37:45.954Z,11.43
2022-12-20T04:40:16.163Z,12.27
2022-12-20T04:42:44.545Z,11.18
2022-12-20T04:45:13.579Z,11.73
2022-12-20T04:47:42.899Z,11.63
2022-12-20T04:50:11.749Z,11.05
2022-12-20T04:52:57.550Z,12.07
2022-12-20T04:55:28.070Z,11.27
2022-12-20T04:57:59.481Z,10.32
2022-12-20T05:00:30.920Z,12.10
2022-12-20T05:02:59.342Z,11.18
2022-12-20T05:05:28.477Z,11.50
2022-12-20T05:07:57.250Z,12.88
2022-12-20T05:10:27.060Z,12.77
2022-12-20T05:12:55.943Z,12.02
2022-12-20T05:15:24.731Z,12.27
2022-12-20T05:17:59.582Z,11.48
2022-12-20T05:20:28.774Z,12.82
2022-12-20T05:23:14.806Z,11.82
2022-12-20T05:26:05.058Z,12.88
2022-12-20T05:28:35.059Z,10.77
2022-12-20T05:31:03.998Z,11.25
2022-12-20T05:33:34.357Z,11.75
2022-12-20T05:36:03.215Z,13.43
2022-12-20T05:38:31.581Z,10.75
2022-12-20T05:41:01.503Z,10.52
2022-12-20T05:43:30.200Z,12.73
2022-12-20T05:45:58.942Z,14.43
2022-12-20T05:48:27.354Z,11.85
2022-12-20T05:50:58.678Z,12.60
2022-12-20T05:53:27.983Z,12.00
2022-12-20T05:55:56.905Z,12.77
2022-12-20T05:58:26.697Z,11.75
2022-12-20T06:00:56.703Z,12.10
2022-12-20T06:03:25.910Z,13.20
2022-12-20T06:05:54.650Z,11.18
2022-12-20T06:08:23.956Z,11.43
2022-12-20T06:10:52.607Z,13.23
2022-12-20T06:13:21.435Z,11.43
2022-12-20T06:15:51.162Z,12.35
2022-12-20T06:18:20.355Z,12.18
2022-12-20T06:20:52.006Z,12.07
2022-12-20T06:23:21.094Z,11.30
2022-12-20T06:25:49.338Z,11.60
2022-12-20T06:28:21.925Z,12.68
2022-12-20T06:30:56.015Z,13.05
2022-12-20T06:35:53.056Z,12.00
2022-12-20T06:38:21.542Z,13.75
2022-12-20T06:40:50.201Z,11.77
2022-12-20T06:43:18.899Z,10.93
2022-12-20T06:45:47.744Z,11.95
2022-12-20T06:48:21.298Z,10.98
2022-12-20T06:50:55.615Z,13.88
2022-12-20T06:53:25.110Z,12.77
2022-12-20T06:55:53.902Z,12.18
2022-12-20T06:58:22.709Z,11.65
2022-12-20T07:00:51.787Z,11.88
2022-12-20T07:03:21.647Z,11.40
2022-12-20T07:05:54.580Z,14.65
2022-12-20T07:08:23.726Z,12.30
2022-12-20T07:10:55.196Z,11.55
2022-12-20T07:13:24.354Z,12.45
2022-12-20T07:15:59.589Z,12.45
2022-12-20T07:18:29.295Z,12.40
2022-12-20T07:21:01.987Z,11.70
2022-12-20T07:23:30.713Z,11.40
2022-12-20T07:26:01.577Z,12.25
2022-12-20T07:28:30.244Z,11.00
2022-12-20T07:31:06.139Z,11.65
2022-12-20T07:33:37.461Z,11.18
2022-12-20T07:36:07.371Z,13.07
2022-12-20T07:38:36.004Z,10.02
2022-12-20T07:41:10.068Z,11.73
2022-12-20T07:43:39.488Z,11.90
2022-12-20T07:46:09.500Z,12.15
2022-12-20T07:48:40.103Z,10.73
2022-12-20T07:51:11.467Z,11.10
2022-12-20T07:53:45.721Z,11.85
2022-12-20T07:56:15.720Z,12.68
2022-12-20T07:58:45.799Z,11.70
2022-12-20T08:01:15.957Z,10.82
2022-12-20T08:03:54.778Z,11.65
2022-12-20T08:06:24.252Z,12.52
2022-12-20T08:08:57.534Z,12.20
2022-12-20T08:11:27.664Z,11.40
2022-12-20T08:13:58.324Z,11.98
2022-12-20T08:16:27.564Z,11.88
2022-12-20T08:18:58.362Z,10.02
2022-12-20T08:21:27.190Z,11.60
2022-12-20T08:23:57.213Z,10.68
2022-12-20T08:26:25.798Z,11.15
2022-12-20T08:28:54.651Z,10.85
2022-12-20T08:31:24.976Z,10.70
2022-12-20T08:33:57.240Z,11.68
2022-12-20T08:36:26.790Z,10.43
2022-12-20T08:38:55.369Z,11.73
2022-12-20T08:41:24.197Z,11.45
2022-12-20T08:43:53.086Z,11.60
2022-12-20T08:46:22.122Z,10.88
2022-12-20T08:48:50.767Z,10.90
2022-12-20T08:51:20.994Z,11.25
2022-12-20T08:53:50.158Z,11.77
2022-12-20T08:56:20.270Z,8.77
2022-12-20T08:58:49.581Z,10.73
2022-12-20T09:01:21.534Z,10.23
2022-12-20T09:03:50.849Z,11.07
2022-12-20T09:06:25.676Z,11.35
2022-12-20T09:08:55.896Z,9.05
2022-12-20T09:11:26.193Z,10.15
2022-12-20T09:13:56.938Z,10.15
2022-12-20T09:16:31.286Z,10.35
2022-12-20T09:19:05.475Z,10.65
2022-12-20T09:21:37.602Z,10.68
2022-12-20T09:24:07.192Z,9.75
2022-12-20T09:26:37.185Z,10.38
2022-12-20T09:29:08.252Z,11.65
2022-12-20T09:31:39.632Z,11.45
2022-12-20T09:34:08.273Z,10.55
2022-12-20T09:36:39.006Z,9.80
2022-12-20T09:39:09.123Z,9.70
2022-12-20T09:41:41.046Z,10.38
2022-12-20T09:44:17.890Z,10.80
2022-12-20T09:46:50.987Z,9.68
2022-12-20T09:49:21.700Z,10.10
2022-12-20T09:52:17.012Z,10.20
2022-12-20T09:54:54.497Z,11.50
2022-12-20T09:57:30.945Z,10.82
2022-12-20T09:59:59.751Z,9.63
2022-12-20T10:05:40.560Z,9.27
2022-12-20T10:08:22.231Z,9.75
2022-12-20T10:10:56.531Z,9.52
2022-12-20T10:13:44.849Z,10.20
2022-12-20T10:16:29.786Z,9.07
2022-12-20T10:19:16.524Z,9.35
2022-12-20T10:21:54.626Z,8.77
2022-12-20T10:24:30.591Z,10.77
2022-12-20T10:27:04.950Z,10.57
2022-12-20T10:29:34.620Z,9.32
2022-12-20T10:32:04.668Z,9.40
2022-12-20T10:34:38.972Z,18.00
2022-12-20T10:37:13.714Z,10.93
2022-12-20T10:39:45.948Z,11.45
2022-12-20T10:42:34.740Z,10.13
2022-12-20T10:45:04.200Z,8.50
2022-12-20T10:47:40.504Z,9.35
2022-12-20T10:50:17.295Z,8.68
2022-12-20T10:52:47.050Z,9.43
2022-12-20T10:55:38.909Z,10.25
2022-12-20T10:58:14.502Z,9.25
2022-12-20T11:00:45.245Z,9.27
2022-12-20T11:03:19.634Z,8.55
2022-12-20T11:05:56.900Z,10.35
2022-12-20T11:08:51.122Z,9.65
2022-12-20T11:11:22.303Z,9.80
2022-12-20T11:16:32.177Z,17.63
2022-12-20T11:19:44.021Z,9.77
2022-12-20T11:22:24.604Z,11.20
2022-12-20T11:25:05.048Z,12.50
2022-12-20T11:27:46.590Z,8.75
2022-12-20T11:30:21.003Z,16.60
2022-12-20T11:33:23.123Z,15.45
2022-12-20T11:35:57.560Z,10.23
2022-12-20T11:38:38.846Z,9.38
2022-12-20T11:41:18.720Z,8.40
2022-12-20T11:44:26.977Z,8.90
2022-12-20T11:47:20.769Z,11.05
2022-12-20T11:50:15.530Z,9.68
2022-12-20T11:52:52.247Z,12.38
2022-12-20T11:55:27.345Z,9.13
2022-12-20T11:58:18.076Z,10.38
2022-12-20T12:00:55.068Z,10.95
2022-12-20T12:03:31.553Z,9.10
2022-12-20T12:06:03.740Z,8.27
2022-12-20T12:08:41.129Z,8.93
2022-12-20T12:11:56.141Z,8.57
2022-12-20T12:14:21.282Z,9.52
2022-12-20T12:16:55.602Z,8.40
2022-12-20T12:19:29.666Z,7.50
2022-12-20T12:24:39.498Z,10.35
2022-12-20T12:27:18.388Z,8.25
2022-12-20T12:29:47.667Z,7.57
2022-12-20T12:32:22.229Z,8.55
2022-12-20T12:35:06.373Z,8.60
2022-12-20T12:38:06.479Z,8.40
2022-12-20T12:41:14.836Z,8.35
2022-12-20T12:44:07.309Z,7.80
2022-12-20T12:46:40.236Z,8.00
2022-12-20T12:49:18.239Z,8.07
2022-12-20T12:51:55.865Z,9.27
2022-12-20T12:54:27.755Z,9.20
2022-12-20T12:57:03.507Z,7.95
2022-12-20T12:59:52.953Z,8.27
2022-12-20T13:02:42.150Z,8.90
2022-12-20T13:05:38.035Z,7.75
2022-12-20T13:08:18.569Z,7.97
2022-12-20T13:11:14.290Z,8.27
2022-12-20T13:13:42.714Z,8.85
2022-12-20T13:17:10.189Z,8.23
2022-12-20T13:19:20.838Z,9.55
2022-12-20T13:21:57.678Z,7.95
2022-12-20T13:24:39.419Z,8.70
2022-12-20T13:27:33.949Z,8.55
2022-12-20T13:30:28.708Z,7.22
2022-12-20T13:33:16.778Z,8.05
2022-12-20T13:35:58.109Z,7.95
2022-12-20T13:38:52.031Z,8.60
2022-12-20T13:41:35.168Z,7.57
2022-12-20T13:44:32.947Z,9.13
2022-12-20T13:47:07.906Z,6.95
2022-12-20T13:49:40.197Z,9.38
2022-12-20T13:52:18.747Z,9.63
2022-12-20T13:54:52.620Z,9.80
2022-12-20T13:57:27.564Z,10.85
2022-12-20T14:00:05.814Z,10.70
2022-12-20T14:02:42.437Z,9.73
2022-12-20T14:05:20.739Z,10.13
2022-12-20T14:07:57.597Z,8.23
2022-12-20T14:10:30.979Z,8.95
2022-12-20T14:13:01.279Z,9.82
2022-12-20T14:15:33.515Z,7.95
2022-12-20T14:18:08.745Z,7.82
2022-12-20T14:21:00.431Z,7.20
2022-12-20T14:23:38.200Z,7.90
2022-12-20T14:26:15.001Z,8.80
2022-12-20T14:28:49.127Z,9.07
2022-12-20T14:34:07.076Z,8.00
2022-12-20T14:36:37.453Z,8.63
2022-12-20T14:39:26.429Z,8.10
2022-12-20T14:42:01.366Z,8.00
2022-12-20T14:44:33.327Z,9.07
2022-12-20T14:47:18.200Z,7.85
2022-12-20T14:49:52.943Z,8.55
2022-12-20T14:52:27.644Z,8.45
2022-12-20T14:55:10.494Z,9.18
2022-12-20T14:57:47.456Z,8.65
2022-12-20T15:00:25.680Z,8.60
2022-12-20T15:03:03.287Z,8.40
2022-12-20T15:05:49.368Z,8.38
2022-12-20T15:08:20.909Z,7.53
2022-12-20T15:10:53.920Z,8.95
2022-12-20T15:13:27.730Z,9.10
2022-12-20T15:15:57.305Z,8.95
2022-12-20T15:18:27.855Z,9.13
2022-12-20T15:21:03.985Z,8.20
2022-12-20T15:23:34.749Z,7.85
2022-12-20T15:26:04.527Z,7.40
2022-12-20T15:28:37.523Z,9.82
2022-12-20T15:31:06.965Z,8.73
2022-12-20T15:33:40.275Z,9.40
2022-12-20T15:36:16.416Z,12.25
2022-12-20T15:41:37.563Z,11.52
2022-12-20T15:44:14.713Z,9.23
2022-12-20T15:46:45.005Z,8.00
2022-12-20T15:49:17.214Z,8.77
2022-12-20T15:51:49.016Z,8.88
2022-12-20T15:54:26.849Z,8.75
2022-12-20T15:56:58.323Z,9.25
2022-12-20T16:02:24.131Z,9.95
2022-12-20T16:04:57.062Z,8.02
2022-12-20T16:07:26.049Z,8.70
2022-12-20T16:09:57.587Z,9.10
2022-12-20T16:12:28.926Z,8.20
2022-12-20T16:15:04.166Z,9.48
2022-12-20T16:17:33.371Z,10.57
2022-12-20T16:20:01.759Z,8.57
2022-12-20T16:22:33.576Z,8.88
2022-12-20T16:25:05.674Z,9.48
2022-12-20T16:27:34.573Z,9.40
2022-12-20T16:30:05.414Z,7.65
2022-12-20T16:32:35.058Z,8.80
2022-12-20T16:35:08.050Z,8.15
2022-12-20T16:37:39.147Z,9.70
2022-12-20T16:40:09.179Z,8.25
2022-12-20T16:42:37.762Z,9.23
2022-12-20T16:45:15.060Z,8.20
2022-12-20T16:47:43.499Z,9.50
2022-12-20T16:50:12.260Z,8.88
2022-12-20T16:52:40.765Z,10.13
2022-12-20T16:55:15.980Z,9.13
2022-12-20T16:57:44.559Z,9.52
2022-12-20T17:00:23.696Z,9.70
2022-12-20T17:02:52.827Z,9.35
2022-12-20T17:05:28.258Z,9.60
2022-12-20T17:07:57.284Z,9.98
2022-12-20T17:10:27.797Z,11.55
2022-12-20T17:12:57.840Z,9.55
2022-12-20T17:15:32.204Z,8.25
2022-12-20T17:18:01.203Z,9.38
2022-12-20T17:20:36.468Z,9.77
2022-12-20T17:25:54.365Z,12.05
2022-12-20T17:28:25.431Z,10.60
2022-12-20T17:30:57.914Z,10.02
2022-12-20T17:33:31.200Z,10.60
2022-12-20T17:36:00.340Z,10.57
2022-12-20T17:38:30.190Z,10.40
2022-12-20T17:40:59.237Z,9.93
2022-12-20T17:43:28.138Z,10.13
2022-12-20T17:45:58.951Z,11.30
2022-12-20T17:48:32.273Z,10.55
2022-12-20T17:51:03.503Z,11.38
2022-12-20T17:53:32.196Z,10.35
2022-12-20T17:56:00.997Z,12.80
2022-12-20T17:58:29.473Z,12.13
2022-12-20T18:00:59.557Z,12.98
2022-12-20T18:04:02.218Z,11.23
2022-12-20T18:06:16.622Z,12.82
2022-12-20T18:08:46.280Z,12.45
2022-12-20T18:11:16.335Z,12.35
2022-12-20T18:13:45.270Z,12.35
2022-12-20T18:16:17.808Z,11.15
2022-12-20T18:18:46.635Z,10.20
2022-12-20T18:21:31.246Z,12.10
2022-12-20T18:24:01.792Z,11.40
2022-12-20T18:26:32.512Z,9.88
2022-12-20T18:29:03.614Z,10.60
2022-12-20T18:31:37.289Z,9.63
2022-12-20T18:34:06.708Z,10.55
2022-12-20T18:36:37.314Z,10.07
2022-12-20T18:39:08.403Z,9.85
2022-12-20T18:41:40.064Z,10.38
2022-12-20T18:44:09.441Z,11.15
2022-12-20T18:46:41.405Z,9.98
2022-12-20T18:49:11.371Z,9.73
2022-12-20T18:51:41.049Z,8.70
2022-12-20T18:54:12.881Z,11.20
2022-12-20T18:56:42.642Z,10.00
2022-12-20T18:59:13.116Z,9.40
2022-12-20T19:01:45.522Z,10.10
2022-12-20T19:04:19.328Z,10.98
2022-12-20T19:06:51.556Z,9.40
2022-12-20T19:09:20.503Z,10.75
2022-12-20T19:11:56.244Z,10.88
2022-12-20T19:14:26.967Z,9.73
2022-12-20T19:16:58.467Z,10.10
2022-12-20T19:19:27.502Z,8.93
2022-12-20T19:21:56.840Z,10.48
2022-12-20T19:24:26.639Z,8.88
2022-12-20T19:26:55.588Z,8.55
2022-12-20T19:29:25.084Z,9.45
2022-12-20T19:31:56.024Z,9.32
2022-12-20T19:34:30.457Z,10.23
2022-12-20T19:37:01.224Z,9.45
2022-12-20T19:39:32.075Z,9.50
2022-12-20T19:42:23.445Z,9.38
2022-12-20T19:44:52.297Z,10.02
2022-12-20T19:47:22.155Z,8.77
2022-12-20T19:49:53.953Z,8.25
2022-12-20T19:52:28.248Z,8.85
2022-12-20T19:54:57.965Z,9.10
2022-12-20T19:57:30.525Z,9.07
2022-12-20T19:59:59.571Z,9.05
2022-12-20T20:02:30.364Z,8.05
2022-12-20T20:05:01.861Z,9.95
2022-12-20T20:07:34.437Z,8.20
2022-12-20T20:10:06.556Z,9.00
2022-12-20T20:12:39.495Z,9.52
2022-12-20T20:15:13.374Z,9.38
2022-12-20T20:20:14.574Z,9.02
2022-12-20T20:22:43.841Z,10.23
2022-12-20T20:25:15.435Z,9.80
2022-12-20T20:27:45.138Z,10.77
2022-12-20T20:30:17.197Z,9.93
2022-12-20T20:32:46.504Z,10.02
2022-12-20T20:35:18.266Z,9.95
2022-12-20T20:37:48.077Z,9.48
2022-12-20T20:40:17.283Z,9.23
2022-12-20T20:42:48.177Z,10.80
2022-12-20T20:45:20.081Z,12.40
2022-12-20T20:47:48.964Z,10.07
2022-12-20T20:50:19.224Z,11.00
2022-12-20T20:52:47.846Z,9.88
2022-12-20T20:55:18.242Z,9.88
2022-12-20T20:57:48.009Z,11.38
2022-12-20T21:00:17.251Z,11.15
2022-12-20T21:02:46.181Z,11.20
2022-12-20T21:08:06.363Z,11.73
2022-12-20T21:10:37.804Z,9.10
2022-12-20T21:13:07.172Z,10.73
2022-12-20T21:15:37.513Z,12.02
2022-12-20T21:18:09.384Z,10.13
2022-12-20T21:20:39.199Z,9.30
2022-12-20T21:23:09.917Z,9.48
2022-12-20T21:25:40.527Z,11.02
2022-12-20T21:28:10.179Z,10.02
2022-12-20T21:30:39.270Z,10.23
2022-12-20T21:33:08.891Z,9.82
2022-12-20T21:35:39.095Z,11.63
2022-12-20T21:38:10.577Z,9.23
2022-12-20T21:40:39.770Z,9.90
2022-12-20T21:43:08.349Z,9.80
2022-12-20T21:45:37.246Z,9.18
2022-12-20T21:48:09.099Z,11.70
2022-12-20T21:50:38.644Z,10.32
2022-12-20T21:53:12.861Z,9.80
2022-12-20T21:55:46.443Z,10.02
2022-12-20T21:58:15.983Z,10.40
2022-12-20T22:00:50.891Z,9.30
2022-12-20T22:03:23.778Z,10.35
2022-12-20T22:05:54.098Z,11.13
2022-12-20T22:08:25.830Z,11.43
2022-12-20T22:11:00.582Z,10.15
2022-12-20T22:13:28.996Z,9.73
2022-12-20T22:15:57.949Z,9.55
2022-12-20T22:18:26.790Z,9.43
2022-12-20T22:20:55.263Z,10.18
2022-12-20T22:23:25.487Z,9.57
2022-12-20T22:25:54.674Z,9.43
2022-12-20T22:28:24.397Z,10.05
2022-12-20T22:30:54.253Z,9.95
2022-12-20T22:33:23.893Z,9.85
2022-12-20T22:35:52.186Z,9.75
2022-12-20T22:38:21.324Z,10.02
2022-12-20T22:40:52.134Z,9.20
2022-12-20T22:43:20.518Z,10.13
2022-12-20T22:45:59.107Z,10.35
2022-12-20T22:48:28.689Z,9.65
2022-12-20T22:51:00.944Z,9.73
2022-12-20T22:53:30.022Z,9.80
2022-12-20T22:56:00.225Z,9.77
2022-12-20T22:58:29.363Z,9.13
2022-12-20T23:00:57.889Z,9.88
2022-12-20T23:03:27.008Z,8.00
2022-12-20T23:05:58.108Z,9.10
2022-12-20T23:08:28.226Z,9.98
2022-12-20T23:11:14.164Z,9.63
2022-12-20T23:14:01.802Z,9.68
2022-12-20T23:16:32.108Z,10.20
2022-12-20T23:19:02.230Z,9.10
2022-12-20T23:21:48.808Z,11.38
2022-12-20T23:24:17.874Z,10.32
2022-12-20T23:26:46.553Z,10.30
2022-12-20T23:29:17.739Z,9.63
2022-12-20T23:31:46.470Z,10.15
2022-12-20T23:34:15.866Z,9.65
2022-12-20T23:37:02.195Z,9.30
2022-12-20T23:39:30.800Z,11.68
2022-12-20T23:42:01.034Z,10.13
2022-12-20T23:44:31.327Z,8.65
2022-12-20T23:46:59.893Z,10.23
2022-12-20T23:49:28.108Z,9.98
2022-12-20T23:51:57.627Z,10.43
2022-12-20T23:54:26.402Z,10.25
2022-12-20T23:56:54.976Z,10.73
2022-12-20T23:59:23.759Z,10.15
